createdAt,value
2023-05-08T00:00:43.681Z,95294.56
2023-05-08T00:04:07.569Z,95275.91
2023-05-08T00:07:31.482Z,95290.41
2023-05-08T00:10:55.092Z,95288.59
2023-05-08T00:14:18.570Z,95287.47
2023-05-08T00:17:42.202Z,95275.81
2023-05-08T00:21:07.041Z,95275.50
2023-05-08T00:24:30.744Z,95258.53
2023-05-08T00:27:54.234Z,95269.63
2023-05-08T00:31:17.799Z,95288.22
2023-05-08T00:34:41.153Z,95268.63
2023-05-08T00:38:04.705Z,95266.78
2023-05-08T00:41:28.792Z,95259.91
2023-05-08T00:44:52.615Z,95257.81
2023-05-08T00:48:16.910Z,95247.13
2023-05-08T00:51:41.581Z,95250.00
2023-05-08T00:55:05.048Z,95257.34
2023-05-08T00:58:29.463Z,95267.22
2023-05-08T01:01:53.995Z,95254.53
2023-05-08T01:05:18.210Z,95261.31
2023-05-08T01:08:42.058Z,95264.63
2023-05-08T01:12:05.611Z,95268.41
2023-05-08T01:15:29.111Z,95273.16
2023-05-08T01:18:52.737Z,95273.88
2023-05-08T01:22:16.379Z,95282.00
2023-05-08T01:25:40.631Z,95282.03
2023-05-08T01:29:05.019Z,95284.38
2023-05-08T01:32:28.790Z,95290.16
2023-05-08T01:35:52.272Z,95270.63
2023-05-08T01:39:17.735Z,95261.78
2023-05-08T01:42:42.473Z,95275.16
2023-05-08T01:46:06.031Z,95282.75
2023-05-08T01:49:30.040Z,95266.22
2023-05-08T01:52:54.232Z,95295.78
2023-05-08T01:56:18.444Z,95307.13
2023-05-08T01:59:42.110Z,95306.47
2023-05-08T02:03:07.460Z,95313.69
2023-05-08T02:06:31.516Z,95312.59
2023-05-08T02:09:54.872Z,95297.59
2023-05-08T02:13:20.424Z,95284.13
2023-05-08T02:16:43.867Z,95292.78
2023-05-08T02:20:07.999Z,95290.16
2023-05-08T02:23:32.724Z,95297.03
2023-05-08T02:26:57.636Z,95297.84
2023-05-08T02:30:23.115Z,95289.03
2023-05-08T02:33:46.594Z,95288.63
2023-05-08T02:37:10.035Z,95277.84
2023-05-08T02:40:33.606Z,95284.31
2023-05-08T02:43:57.430Z,95262.28
2023-05-08T02:47:20.853Z,95278.31
2023-05-08T02:50:44.786Z,95291.09
2023-05-08T02:54:08.916Z,95276.31
2023-05-08T02:57:32.495Z,95277.13
2023-05-08T03:00:56.017Z,95270.59
2023-05-08T03:04:20.048Z,95263.81
2023-05-08T03:07:43.388Z,95267.50
2023-05-08T03:11:07.044Z,95285.63
2023-05-08T03:14:30.736Z,95275.22
2023-05-08T03:17:55.407Z,95282.56
2023-05-08T03:21:19.355Z,95300.28
2023-05-08T03:24:43.121Z,95293.78
2023-05-08T03:28:06.770Z,95287.94
2023-05-08T03:31:31.676Z,95301.63
2023-05-08T03:34:56.827Z,95306.78
2023-05-08T03:38:20.818Z,95300.16
2023-05-08T03:41:44.729Z,95322.66
2023-05-08T03:45:08.621Z,95350.22
2023-05-08T03:48:32.455Z,95336.97
2023-05-08T03:51:56.252Z,95344.16
2023-05-08T03:55:20.322Z,95344.13
2023-05-08T03:58:45.244Z,95346.81
2023-05-08T04:02:10.467Z,95343.03
2023-05-08T04:05:33.958Z,95361.41
2023-05-08T04:08:59.709Z,95354.50
2023-05-08T04:12:23.486Z,95351.78
2023-05-08T04:15:48.719Z,95352.84
2023-05-08T04:19:12.890Z,95349.03
2023-05-08T04:22:36.918Z,95340.44
2023-05-08T04:26:00.846Z,95337.91
2023-05-08T04:29:26.672Z,95328.53
2023-05-08T04:32:50.283Z,95329.28
2023-05-08T04:36:14.365Z,95334.13
2023-05-08T04:39:40.971Z,95335.91
2023-05-08T04:43:06.632Z,95334.75
2023-05-08T04:46:30.394Z,95345.94
2023-05-08T04:49:54.567Z,95344.16
2023-05-08T04:53:18.171Z,95341.28
2023-05-08T04:56:42.303Z,95337.72
2023-05-08T05:00:06.692Z,95333.41
2023-05-08T05:03:34.783Z,95338.25
2023-05-08T05:06:58.412Z,95323.22
2023-05-08T05:10:22.474Z,95326.25
2023-05-08T05:13:46.010Z,95322.19
2023-05-08T05:17:10.382Z,95317.59
2023-05-08T05:20:35.275Z,95312.53
2023-05-08T05:23:59.734Z,95309.72
2023-05-08T05:27:24.310Z,95305.34
2023-05-08T05:30:48.500Z,95298.97
2023-05-08T05:34:12.929Z,95305.91
2023-05-08T05:37:37.044Z,95302.59
2023-05-08T05:41:00.953Z,95294.91
2023-05-08T05:44:24.341Z,95285.47
2023-05-08T05:47:54.523Z,95288.25
2023-05-08T05:51:21.588Z,95286.69
2023-05-08T05:54:46.913Z,95288.00
2023-05-08T05:58:10.993Z,95283.13
2023-05-08T06:01:35.279Z,95284.38
2023-05-08T06:04:58.712Z,95283.88
2023-05-08T06:08:22.164Z,95286.47
2023-05-08T06:11:45.859Z,95285.16
2023-05-08T06:15:10.139Z,95283.16
2023-05-08T06:18:34.144Z,95280.88
2023-05-08T06:21:58.946Z,95291.56
2023-05-08T06:25:22.506Z,95280.81
2023-05-08T06:28:46.228Z,95292.53
2023-05-08T06:32:10.911Z,95294.34
2023-05-08T06:35:35.479Z,95295.63
2023-05-08T06:38:59.209Z,95301.69
2023-05-08T06:42:25.112Z,95307.03
2023-05-08T06:45:48.593Z,95305.03
2023-05-08T06:49:12.768Z,95299.66
2023-05-08T06:52:36.299Z,95306.75
2023-05-08T06:56:00.275Z,95293.72
2023-05-08T06:59:26.545Z,95289.28
2023-05-08T07:02:50.339Z,95294.97
2023-05-08T07:06:14.050Z,95285.53
2023-05-08T07:09:37.465Z,95295.47
2023-05-08T07:13:02.426Z,95277.34
2023-05-08T07:16:26.056Z,95293.13
2023-05-08T07:19:49.590Z,95292.19
2023-05-08T07:23:12.943Z,95292.72
2023-05-08T07:26:37.250Z,95291.94
2023-05-08T07:30:04.517Z,95276.09
2023-05-08T07:33:31.044Z,95281.00
2023-05-08T07:36:55.449Z,95278.94
2023-05-08T07:40:18.925Z,95279.16
2023-05-08T07:43:45.411Z,95273.25
2023-05-08T07:47:09.006Z,95269.91
2023-05-08T07:50:32.733Z,95267.84
2023-05-08T07:53:56.383Z,95278.00
2023-05-08T07:57:19.997Z,95260.69
2023-05-08T08:00:44.488Z,95252.09
2023-05-08T08:04:08.538Z,95293.28
2023-05-08T08:07:35.916Z,95250.47
2023-05-08T08:11:00.151Z,95255.63
2023-05-08T08:14:25.213Z,95255.81
2023-05-08T08:17:49.826Z,95246.81
2023-05-08T08:21:13.331Z,95243.63
2023-05-08T08:24:44.273Z,95241.13
2023-05-08T08:28:08.060Z,95247.13
2023-05-08T08:31:31.961Z,95243.63
2023-05-08T08:34:55.905Z,95239.16
2023-05-08T08:38:19.753Z,95247.09
2023-05-08T08:41:43.128Z,95255.53
2023-05-08T08:45:07.233Z,95254.38
2023-05-08T08:48:30.939Z,95244.13
2023-05-08T08:51:54.464Z,95250.28
2023-05-08T08:55:18.703Z,95231.44
2023-05-08T08:58:44.175Z,95218.41
2023-05-08T09:02:08.620Z,95218.78
2023-05-08T09:05:33.510Z,95223.06
2023-05-08T09:08:57.895Z,95206.53
2023-05-08T09:12:21.775Z,95222.69
2023-05-08T09:15:47.202Z,95217.94
2023-05-08T09:19:11.569Z,95211.44
2023-05-08T09:22:35.482Z,95204.97
2023-05-08T09:26:01.243Z,95209.50
2023-05-08T09:29:26.838Z,95230.91
2023-05-08T09:32:50.878Z,95243.31
2023-05-08T09:36:14.202Z,95232.31
2023-05-08T09:39:41.739Z,95223.25
2023-05-08T09:43:05.863Z,95224.19
2023-05-08T09:46:32.409Z,95240.47
2023-05-08T09:49:57.125Z,95240.72
2023-05-08T09:53:20.984Z,95234.13
2023-05-08T09:56:44.909Z,95248.75
2023-05-08T10:00:10.352Z,95241.84
2023-05-08T10:03:35.051Z,95237.31
2023-05-08T10:06:59.117Z,95239.63
2023-05-08T10:10:22.658Z,95249.06
2023-05-08T10:13:46.493Z,95248.31
2023-05-08T10:17:09.954Z,95246.78
2023-05-08T10:20:33.592Z,95251.66
2023-05-08T10:23:57.128Z,95263.38
2023-05-08T10:27:20.823Z,95264.91
2023-05-08T10:30:45.772Z,95272.78
2023-05-08T10:34:09.626Z,95275.53
2023-05-08T10:37:33.561Z,95284.63
2023-05-08T10:40:58.990Z,95274.56
2023-05-08T10:44:22.683Z,95298.94
2023-05-08T10:47:46.627Z,95287.13
2023-05-08T10:51:10.312Z,95292.94
2023-05-08T10:54:33.878Z,95292.91
2023-05-08T10:57:57.537Z,95288.19
2023-05-08T11:01:21.661Z,95286.09
2023-05-08T11:04:45.805Z,95287.41
2023-05-08T11:08:09.838Z,95279.22
2023-05-08T11:11:36.620Z,95265.16
2023-05-08T11:15:00.312Z,95253.22
2023-05-08T11:18:26.360Z,95240.06
2023-05-08T11:21:49.854Z,95245.09
2023-05-08T11:25:13.323Z,95244.66
2023-05-08T11:28:37.448Z,95245.38
2023-05-08T11:32:01.265Z,95241.13
2023-05-08T11:35:25.578Z,95236.59
2023-05-08T11:38:49.167Z,95243.59
2023-05-08T11:42:12.956Z,95245.31
2023-05-08T11:45:36.493Z,95243.56
2023-05-08T11:49:04.275Z,95263.78
2023-05-08T11:52:27.627Z,95264.28
2023-05-08T11:55:51.221Z,95260.56
2023-05-08T11:59:14.794Z,95253.81
2023-05-08T12:02:38.486Z,95264.44
2023-05-08T12:06:02.903Z,95265.44
2023-05-08T12:09:26.849Z,95249.69
2023-05-08T12:12:56.910Z,95255.97
2023-05-08T12:16:27.045Z,95262.94
2023-05-08T12:20:04.331Z,95247.41
2023-05-08T12:23:29.054Z,95269.25
2023-05-08T12:26:52.823Z,95244.75
2023-05-08T12:30:16.877Z,95246.59
2023-05-08T12:33:40.944Z,95244.13
2023-05-08T12:37:04.598Z,95243.22
2023-05-08T12:40:28.845Z,95247.53
2023-05-08T12:43:53.171Z,95265.88
2023-05-08T12:47:16.894Z,95262.41
2023-05-08T12:50:41.073Z,95275.72
2023-05-08T12:54:07.546Z,95276.25
2023-05-08T12:57:31.725Z,95274.25
2023-05-08T13:00:55.163Z,95294.91
2023-05-08T13:04:20.168Z,95282.66
2023-05-08T13:07:43.698Z,95298.75
2023-05-08T13:11:09.497Z,95312.25
2023-05-08T13:14:33.527Z,95309.19
2023-05-08T13:17:58.289Z,95312.50
2023-05-08T13:21:26.589Z,95313.03
2023-05-08T13:24:51.423Z,95322.97
2023-05-08T13:28:14.768Z,95319.38
2023-05-08T13:31:38.350Z,95327.31
2023-05-08T13:35:03.083Z,95317.84
2023-05-08T13:38:26.813Z,95329.06
2023-05-08T13:41:50.791Z,95305.13
2023-05-08T13:45:18.823Z,95315.06
2023-05-08T13:48:42.568Z,95307.66
2023-05-08T13:52:05.980Z,95309.69
2023-05-08T13:55:29.968Z,95306.09
2023-05-08T13:58:54.105Z,95306.81
2023-05-08T14:02:19.815Z,95317.09
2023-05-08T14:05:44.600Z,95313.53
2023-05-08T14:09:09.187Z,95305.34
2023-05-08T14:12:36.880Z,95306.13
2023-05-08T14:16:02.704Z,95309.94
2023-05-08T14:19:31.579Z,95305.13
2023-05-08T14:22:59.563Z,95310.19
2023-05-08T14:26:23.768Z,95329.59
2023-05-08T14:29:49.754Z,95327.03
2023-05-08T14:33:13.512Z,95337.00
2023-05-08T14:36:56.648Z,95326.28
2023-05-08T14:40:22.665Z,95337.75
2023-05-08T14:43:50.471Z,95332.41
2023-05-08T14:47:14.373Z,95343.88
2023-05-08T14:50:38.328Z,95342.84
2023-05-08T14:54:02.081Z,95364.75
2023-05-08T14:57:26.054Z,95347.44
2023-05-08T15:00:49.798Z,95361.44
2023-05-08T15:04:14.709Z,95374.94
2023-05-08T15:07:41.402Z,95373.59
2023-05-08T15:11:05.787Z,95376.91
2023-05-08T15:14:30.313Z,95384.06
2023-05-08T15:17:53.824Z,95394.75
2023-05-08T15:26:11.077Z,95408.88
2023-05-08T15:29:36.513Z,95390.69
2023-05-08T15:33:00.408Z,95396.59
2023-05-08T15:36:24.481Z,95419.00
2023-05-08T15:39:50.548Z,95430.69
2023-05-08T15:43:14.173Z,95423.19
2023-05-08T15:46:39.869Z,95412.41
2023-05-08T15:50:03.695Z,95455.44
2023-05-08T15:53:28.863Z,95440.38
2023-05-08T15:56:53.352Z,95462.84
2023-05-08T16:00:22.992Z,95484.94
2023-05-08T16:03:48.397Z,95478.81
2023-05-08T16:07:15.171Z,95470.47
2023-05-08T16:10:38.601Z,95466.53
2023-05-08T16:14:02.564Z,95486.03
2023-05-08T16:17:27.326Z,95500.00
2023-05-08T16:20:53.618Z,95492.91
2023-05-08T16:24:19.626Z,95512.25
2023-05-08T16:27:45.503Z,95509.16
2023-05-08T16:31:10.389Z,95510.94
2023-05-08T16:34:36.074Z,95533.66
2023-05-08T16:38:02.156Z,95533.88
2023-05-08T16:41:28.269Z,95547.06
2023-05-08T16:44:52.555Z,95556.38
2023-05-08T16:48:16.625Z,95558.88
2023-05-08T16:51:41.343Z,95538.25
2023-05-08T16:55:05.482Z,95531.75
2023-05-08T16:58:30.393Z,95533.53
2023-05-08T17:01:54.549Z,95529.16
2023-05-08T17:05:18.804Z,95523.03
2023-05-08T17:08:43.650Z,95547.91
2023-05-08T17:12:08.259Z,95545.94
2023-05-08T17:15:33.076Z,95553.22
2023-05-08T17:18:57.950Z,95553.91
2023-05-08T17:22:22.397Z,95550.06
2023-05-08T17:25:46.349Z,95566.09
2023-05-08T17:29:09.896Z,95573.13
2023-05-08T17:32:34.448Z,95569.31
2023-05-08T17:35:59.224Z,95575.66
2023-05-08T17:39:23.574Z,95559.22
2023-05-08T17:42:51.040Z,95556.50
2023-05-08T17:46:15.611Z,95552.81
2023-05-08T17:49:40.681Z,95549.81
2023-05-08T17:53:05.858Z,95551.06
2023-05-08T17:56:31.163Z,95545.91
2023-05-08T17:59:57.646Z,95549.97
2023-05-08T18:03:24.467Z,95550.66
2023-05-08T18:06:51.999Z,95552.59
2023-05-08T18:10:16.397Z,95577.47
2023-05-08T18:13:41.258Z,95572.28
2023-05-08T18:17:07.416Z,95570.91
2023-05-08T18:20:31.513Z,95572.13
2023-05-08T18:23:55.785Z,95576.69
2023-05-08T18:27:19.897Z,95570.81
2023-05-08T18:30:45.600Z,95562.59
2023-05-08T18:34:13.359Z,95599.09
2023-05-08T18:37:37.366Z,95581.25
2023-05-08T18:41:03.415Z,95570.22
2023-05-08T18:44:28.185Z,95583.34
2023-05-08T18:47:53.712Z,95584.66
2023-05-08T18:51:18.951Z,95562.03
2023-05-08T18:54:42.443Z,95579.75
2023-05-08T18:58:06.867Z,95576.97
2023-05-08T19:01:30.684Z,95557.25
2023-05-08T19:04:54.639Z,95550.09
2023-05-08T19:08:19.344Z,95571.38
2023-05-08T19:11:43.276Z,95571.66
2023-05-08T19:15:09.104Z,95572.28
2023-05-08T19:18:32.761Z,95580.38
2023-05-08T19:21:56.408Z,95555.41
2023-05-08T19:25:20.109Z,95566.41
2023-05-08T19:28:44.120Z,95564.59
2023-05-08T19:32:08.076Z,95565.84
2023-05-08T19:35:32.199Z,95570.94
2023-05-08T19:38:57.285Z,95584.72
2023-05-08T19:42:21.010Z,95564.66
2023-05-08T19:45:46.031Z,95570.84
2023-05-08T19:49:10.399Z,95577.50
2023-05-08T19:52:34.452Z,95561.41
2023-05-08T19:55:58.648Z,95573.75
2023-05-08T19:59:21.986Z,95565.28
2023-05-08T20:02:45.252Z,95578.16
2023-05-08T20:06:09.890Z,95577.09
2023-05-08T20:09:33.626Z,95582.50
2023-05-08T20:12:57.425Z,95580.88
2023-05-08T20:16:21.155Z,95586.66
2023-05-08T20:19:44.865Z,95594.91
2023-05-08T20:23:08.398Z,95595.31
2023-05-08T20:26:33.098Z,95584.22
2023-05-08T20:29:57.004Z,95600.91
2023-05-08T20:33:21.026Z,95612.25
2023-05-08T20:36:45.704Z,95601.75
2023-05-08T20:40:10.246Z,95621.00
2023-05-08T20:43:33.550Z,95608.78
2023-05-08T20:46:58.267Z,95620.53
2023-05-08T20:50:23.768Z,95615.53
2023-05-08T20:53:11.500Z,95613.78
2023-05-08T20:55:40.090Z,95611.66
2023-05-08T20:58:11.924Z,95616.09
2023-05-08T21:00:40.263Z,95601.97
2023-05-08T21:03:09.322Z,95612.34
2023-05-08T21:05:37.647Z,95616.88
2023-05-08T21:08:06.604Z,95596.38
2023-05-08T21:10:34.931Z,95595.25
2023-05-08T21:13:03.018Z,95607.63
2023-05-08T21:15:31.844Z,95594.34
2023-05-08T21:17:59.716Z,95598.13
2023-05-08T21:20:28.103Z,95592.25
2023-05-08T21:22:56.481Z,95583.78
2023-05-08T21:25:26.042Z,95572.41
2023-05-08T21:37:48.906Z,95577.63
2023-05-08T21:40:39.156Z,95570.50
2023-05-08T21:43:07.809Z,95595.16
2023-05-08T21:45:54.391Z,95549.94
2023-05-08T21:48:24.503Z,95556.50
2023-05-08T21:50:54.062Z,95547.53
2023-05-08T21:53:41.480Z,95565.59
2023-05-08T21:56:28.080Z,95554.53
2023-05-08T21:59:14.337Z,95555.78
2023-05-08T22:01:44.590Z,95551.94
2023-05-08T22:04:12.427Z,95546.44
2023-05-08T22:06:43.325Z,95550.50
2023-05-08T22:09:12.685Z,95549.34
2023-05-08T22:11:40.994Z,95546.66
2023-05-08T22:14:10.188Z,95528.16
2023-05-08T22:16:38.737Z,95553.56
2023-05-08T22:19:07.621Z,95534.53
2023-05-08T22:21:36.752Z,95546.03
2023-05-08T22:24:05.919Z,95541.44
2023-05-08T22:26:53.745Z,95541.16
2023-05-08T22:29:25.980Z,95546.81
2023-05-08T22:32:19.471Z,95557.81
2023-05-08T22:35:09.560Z,95549.34
2023-05-08T22:38:00.145Z,95529.72
2023-05-08T22:40:50.626Z,95541.25
2023-05-08T22:43:20.065Z,95545.59
2023-05-08T22:46:07.581Z,95536.81
2023-05-08T22:48:37.966Z,95548.31
2023-05-08T22:51:07.386Z,95543.84
2023-05-08T22:53:36.039Z,95535.69
2023-05-08T22:56:05.658Z,95551.53
2023-05-08T22:58:34.710Z,95537.53
2023-05-08T23:01:03.016Z,95524.59
2023-05-08T23:03:54.132Z,95537.00
2023-05-08T23:06:40.848Z,95535.00
2023-05-08T23:09:28.207Z,95558.59
2023-05-08T23:12:17.618Z,95547.97
2023-05-08T23:14:48.946Z,95531.84
2023-05-08T23:17:21.269Z,95529.91
2023-05-08T23:19:52.880Z,95552.69
2023-05-08T23:22:23.309Z,95552.22
2023-05-08T23:24:53.499Z,95549.91
2023-05-08T23:27:21.898Z,95574.75
2023-05-08T23:29:53.038Z,95560.00
2023-05-08T23:32:21.855Z,95550.28
2023-05-08T23:34:50.964Z,95566.97
2023-05-08T23:37:20.121Z,95554.34
2023-05-08T23:39:50.469Z,95566.66
2023-05-08T23:42:18.601Z,95574.34
2023-05-08T23:44:49.449Z,95569.25
2023-05-08T23:47:19.661Z,95564.44
2023-05-08T23:49:49.030Z,95566.66
2023-05-08T23:52:17.867Z,95571.69
2023-05-08T23:54:46.775Z,95576.00
2023-05-08T23:57:34.169Z,95573.63
